createdAt,value
2023-04-06T00:01:09.828Z,101475.84
2023-04-06T00:03:37.403Z,101484.47
2023-04-06T00:06:05.180Z,101478.13
2023-04-06T00:08:32.115Z,101475.66
2023-04-06T00:10:59.102Z,101469.50
2023-04-06T00:13:26.386Z,101483.59
2023-04-06T00:15:53.433Z,101481.53
2023-04-06T00:18:20.770Z,101472.72
2023-04-06T00:20:47.887Z,101465.47
2023-04-06T00:23:14.892Z,101460.91
2023-04-06T00:25:42.068Z,101459.00
2023-04-06T00:28:09.152Z,101458.00
2023-04-06T00:30:36.244Z,101444.03
2023-04-06T00:33:03.343Z,101450.94
2023-04-06T00:35:30.492Z,101456.47
2023-04-06T00:37:57.575Z,101450.03
2023-04-06T00:40:24.964Z,101450.72
2023-04-06T00:42:51.959Z,101444.81
2023-04-06T00:45:19.111Z,101450.63
2023-04-06T00:47:46.266Z,101434.16
2023-04-06T00:50:13.327Z,101440.19
2023-04-06T00:52:40.367Z,101438.13
2023-04-06T00:55:07.868Z,101435.19
2023-04-06T00:57:34.899Z,101433.97
2023-04-06T01:00:01.936Z,101430.84
2023-04-06T01:02:29.048Z,101428.28
2023-04-06T01:04:56.311Z,101427.28
2023-04-06T01:07:23.468Z,101421.94
2023-04-06T01:09:50.531Z,101413.28
2023-04-06T01:12:18.001Z,101421.28
2023-04-06T01:14:45.042Z,101418.25
2023-04-06T01:17:12.344Z,101423.25
2023-04-06T01:19:41.232Z,101413.88
2023-04-06T01:22:08.763Z,101416.25
2023-04-06T01:24:35.774Z,101413.63
2023-04-06T01:27:02.818Z,101409.34
2023-04-06T01:29:29.799Z,101412.31
2023-04-06T01:31:56.979Z,101395.09
2023-04-06T01:34:24.004Z,101397.97
2023-04-06T01:36:51.293Z,101401.47
2023-04-06T01:39:18.550Z,101400.47
2023-04-06T01:41:46.005Z,101385.88
2023-04-06T01:44:12.977Z,101392.56
2023-04-06T01:46:40.017Z,101383.69
2023-04-06T01:49:07.315Z,101383.13
2023-04-06T01:51:34.422Z,101383.44
2023-04-06T01:54:01.426Z,101381.59
2023-04-06T01:56:28.351Z,101381.81
2023-04-06T01:58:56.129Z,101383.88
2023-04-06T02:01:23.481Z,101375.44
2023-04-06T02:03:50.589Z,101361.31
2023-04-06T02:06:17.570Z,101370.53
2023-04-06T02:08:44.621Z,101368.28
2023-04-06T02:11:11.741Z,101362.94
2023-04-06T02:13:38.696Z,101354.94
2023-04-06T02:16:06.616Z,101366.66
2023-04-06T02:18:33.709Z,101360.31
2023-04-06T02:21:00.705Z,101355.53
2023-04-06T02:23:27.757Z,101360.91
2023-04-06T02:25:54.687Z,101358.63
2023-04-06T02:28:21.590Z,101361.25
2023-04-06T02:30:48.594Z,101358.03
2023-04-06T02:33:15.731Z,101364.88
2023-04-06T02:35:42.756Z,101363.28
2023-04-06T02:38:09.729Z,101361.22
2023-04-06T02:40:36.671Z,101359.50
2023-04-06T02:43:03.741Z,101365.63
2023-04-06T02:45:30.793Z,101345.69
2023-04-06T02:47:57.767Z,101351.28
2023-04-06T02:50:24.772Z,101355.75
2023-04-06T02:52:53.401Z,101361.06
2023-04-06T02:55:22.413Z,101357.78
2023-04-06T02:57:49.597Z,101349.16
2023-04-06T03:00:16.903Z,101342.03
2023-04-06T03:02:44.143Z,101345.94
2023-04-06T03:05:11.265Z,101341.81
2023-04-06T03:07:38.252Z,101338.50
2023-04-06T03:10:06.016Z,101341.81
2023-04-06T03:12:32.952Z,101333.81
2023-04-06T03:15:00.011Z,101341.97
2023-04-06T03:17:26.968Z,101334.03
2023-04-06T03:19:53.958Z,101325.47
2023-04-06T03:22:21.834Z,101336.44
2023-04-06T03:24:48.874Z,101330.75
2023-04-06T03:27:15.972Z,101332.00
2023-04-06T03:29:42.934Z,101321.81
2023-04-06T03:32:11.365Z,101324.63
2023-04-06T03:34:39.944Z,101332.44
2023-04-06T03:37:10.313Z,101322.81
2023-04-06T03:39:37.834Z,101319.31
2023-04-06T03:42:05.030Z,101314.41
2023-04-06T03:44:32.001Z,101332.25
2023-04-06T03:46:59.057Z,101315.22
2023-04-06T03:49:26.040Z,101327.31
2023-04-06T03:51:54.574Z,101319.31
2023-04-06T03:54:21.596Z,101311.16
2023-04-06T03:56:48.595Z,101321.81
2023-04-06T03:59:16.126Z,101309.50
2023-04-06T04:01:43.393Z,101313.81
2023-04-06T04:04:11.351Z,101318.69
2023-04-06T04:06:38.347Z,101318.50
2023-04-06T04:09:05.466Z,101318.84
2023-04-06T04:11:32.384Z,101317.25
2023-04-06T04:13:59.311Z,101324.00
2023-04-06T04:16:26.458Z,101307.63
2023-04-06T04:18:53.499Z,101327.13
2023-04-06T04:21:20.841Z,101327.13
2023-04-06T04:23:47.976Z,101325.59
2023-04-06T04:26:14.921Z,101322.91
2023-04-06T04:28:41.982Z,101306.41
2023-04-06T04:31:09.350Z,101315.63
2023-04-06T04:33:36.323Z,101309.19
2023-04-06T04:36:03.756Z,101310.31
2023-04-06T04:38:30.747Z,101324.66
2023-04-06T04:40:57.718Z,101321.28
2023-04-06T04:43:24.713Z,101327.94
2023-04-06T04:45:51.760Z,101320.13
2023-04-06T04:48:18.864Z,101336.97
2023-04-06T04:50:45.988Z,101334.25
2023-04-06T04:53:13.241Z,101328.31
2023-04-06T04:55:40.232Z,101333.06
2023-04-06T04:58:07.219Z,101325.06
2023-04-06T05:00:34.243Z,101315.41
2023-04-06T05:03:01.527Z,101326.91
2023-04-06T05:05:28.839Z,101329.59
2023-04-06T05:07:56.112Z,101327.13
2023-04-06T05:10:23.215Z,101319.91
2023-04-06T05:12:50.247Z,101324.47
2023-04-06T05:15:17.336Z,101326.69
2023-04-06T05:17:44.355Z,101325.09
2023-04-06T05:20:11.985Z,101322.34
2023-04-06T05:22:38.992Z,101328.66
2023-04-06T05:25:06.626Z,101320.53
2023-04-06T05:27:33.607Z,101317.81
2023-04-06T05:30:00.596Z,101320.53
2023-04-06T05:32:29.084Z,101319.41
2023-04-06T05:34:57.075Z,101311.72
2023-04-06T05:37:24.205Z,101308.16
2023-04-06T05:39:51.157Z,101304.53
2023-04-06T05:42:18.175Z,101313.50
2023-04-06T05:44:45.364Z,101305.34
2023-04-06T05:47:12.314Z,101309.66
2023-04-06T05:49:39.520Z,101294.13
2023-04-06T05:52:06.819Z,101305.63
2023-04-06T05:54:34.115Z,101300.84
2023-04-06T05:57:03.991Z,101310.69
2023-04-06T05:59:33.858Z,101297.88
2023-04-06T06:02:02.271Z,101301.09
2023-04-06T06:04:29.321Z,101295.31
2023-04-06T06:06:56.253Z,101297.34
2023-04-06T06:09:23.271Z,101291.31
2023-04-06T06:11:51.327Z,101290.97
2023-04-06T06:14:18.339Z,101289.75
2023-04-06T06:16:45.592Z,101289.72
2023-04-06T06:19:12.683Z,101289.06
2023-04-06T06:21:39.614Z,101283.22
2023-04-06T06:24:08.300Z,101283.25
2023-04-06T06:26:38.053Z,101285.19
2023-04-06T06:29:06.597Z,101277.81
2023-04-06T06:31:33.930Z,101276.44
2023-04-06T06:34:01.085Z,101273.34
2023-04-06T06:36:28.226Z,101270.34
2023-04-06T06:38:55.241Z,101267.47
2023-04-06T06:41:22.366Z,101264.13
2023-04-06T06:43:49.319Z,101265.84
2023-04-06T06:46:16.441Z,101264.38
2023-04-06T06:48:43.593Z,101260.34
2023-04-06T06:51:12.786Z,101259.53
2023-04-06T06:53:39.726Z,101259.94
2023-04-06T06:56:07.231Z,101261.16
2023-04-06T06:58:34.192Z,101263.19
2023-04-06T07:01:01.276Z,101271.19
2023-04-06T07:03:28.346Z,101266.06
2023-04-06T07:05:55.613Z,101258.50
2023-04-06T07:08:24.884Z,101258.81
2023-04-06T07:10:53.785Z,101259.81
2023-04-06T07:13:25.112Z,101263.03
2023-04-06T07:15:52.448Z,101263.25
2023-04-06T07:18:20.788Z,101259.31
2023-04-06T07:20:48.105Z,101256.00
2023-04-06T07:23:15.300Z,101266.41
2023-04-06T07:25:43.006Z,101254.00
2023-04-06T07:28:10.001Z,101260.34
2023-04-06T07:30:39.344Z,101254.41
2023-04-06T07:33:06.795Z,101258.75
2023-04-06T07:35:35.909Z,101260.97
2023-04-06T07:38:03.500Z,101263.13
2023-04-06T07:40:32.761Z,101259.31
2023-04-06T07:43:00.109Z,101268.38
2023-04-06T07:45:27.458Z,101264.88
2023-04-06T07:47:54.420Z,101262.19
2023-04-06T07:50:21.563Z,101259.41
2023-04-06T07:52:48.639Z,101262.31
2023-04-06T07:55:15.772Z,101265.69
2023-04-06T07:57:42.742Z,101260.13
2023-04-06T08:00:10.709Z,101259.91
2023-04-06T08:02:37.859Z,101251.13
2023-04-06T08:05:05.247Z,101254.78
2023-04-06T08:07:32.364Z,101252.94
2023-04-06T08:09:59.470Z,101248.75
2023-04-06T08:12:26.492Z,101246.41
2023-04-06T08:14:53.646Z,101252.41
2023-04-06T08:17:20.731Z,101253.09
2023-04-06T08:19:48.965Z,101246.44
2023-04-06T08:22:15.958Z,101245.47
2023-04-06T08:24:43.061Z,101250.94
2023-04-06T08:27:10.229Z,101257.94
2023-04-06T08:29:37.240Z,101237.19
2023-04-06T08:32:06.112Z,101247.66
2023-04-06T08:34:34.261Z,101254.88
2023-04-06T08:37:01.534Z,101254.03
2023-04-06T08:39:29.331Z,101247.50
2023-04-06T08:42:01.095Z,101244.91
2023-04-06T08:44:28.294Z,101246.28
2023-04-06T08:46:56.159Z,101240.13
2023-04-06T08:49:23.497Z,101236.59
2023-04-06T08:51:51.992Z,101254.41
2023-04-06T08:54:19.158Z,101238.28
2023-04-06T08:56:47.189Z,101240.63
2023-04-06T08:59:14.892Z,101241.47
2023-04-06T09:01:43.973Z,101229.84
2023-04-06T09:04:13.439Z,101233.91
2023-04-06T09:06:42.093Z,101229.34
2023-04-06T09:09:09.849Z,101235.75
2023-04-06T09:11:51.673Z,101233.84
2023-04-06T09:14:38.096Z,101232.34
2023-04-06T09:17:06.009Z,101235.59
2023-04-06T09:19:33.224Z,101227.19
2023-04-06T09:22:10.290Z,101237.50
2023-04-06T09:24:53.432Z,101243.94
2023-04-06T09:27:36.813Z,101237.19
2023-04-06T09:30:14.957Z,101229.69
2023-04-06T09:32:50.821Z,101220.94
2023-04-06T09:35:20.913Z,101231.91
2023-04-06T09:37:50.697Z,101227.31
2023-04-06T09:40:22.101Z,101219.69
2023-04-06T09:42:53.510Z,101221.25
2023-04-06T09:45:21.844Z,101219.53
2023-04-06T09:47:49.505Z,101225.63
2023-04-06T09:50:17.440Z,101223.38
2023-04-06T09:52:51.019Z,101212.97
2023-04-06T09:55:41.162Z,101211.53
2023-04-06T09:58:11.694Z,101214.06
2023-04-06T10:00:54.948Z,101212.03
2023-04-06T10:03:32.794Z,101223.41
2023-04-06T10:06:06.978Z,101208.97
2023-04-06T10:08:36.664Z,101210.81
2023-04-06T10:11:03.927Z,101211.66
2023-04-06T10:13:31.056Z,101217.97
2023-04-06T10:16:01.675Z,101223.88
2023-04-06T10:18:29.456Z,101215.28
2023-04-06T10:21:22.105Z,101220.19
2023-04-06T10:24:03.544Z,101200.47
2023-04-06T10:26:30.586Z,101214.97
2023-04-06T10:29:05.194Z,101212.09
2023-04-06T10:31:32.411Z,101210.81
2023-04-06T10:34:03.994Z,101225.44
2023-04-06T10:36:35.739Z,101206.16
2023-04-06T10:39:06.038Z,101214.25
2023-04-06T10:41:49.527Z,101213.69
2023-04-06T10:44:23.149Z,101212.53
2023-04-06T10:47:04.553Z,101205.56
2023-04-06T10:49:31.505Z,101206.50
2023-04-06T10:51:58.873Z,101200.94
2023-04-06T10:54:27.437Z,101189.13
2023-04-06T10:56:54.438Z,101193.81
2023-04-06T10:59:23.085Z,101195.94
2023-04-06T11:01:50.528Z,101188.94
2023-04-06T11:04:22.064Z,101189.88
2023-04-06T11:06:50.854Z,101175.59
2023-04-06T11:09:32.609Z,101176.22
2023-04-06T11:12:00.058Z,101182.09
2023-04-06T11:14:27.593Z,101178.09
2023-04-06T11:16:55.062Z,101181.00
2023-04-06T11:19:22.178Z,101177.94
2023-04-06T11:21:50.446Z,101185.38
2023-04-06T11:24:20.524Z,101188.94
2023-04-06T11:26:58.133Z,101176.84
2023-04-06T11:29:33.963Z,101182.38
2023-04-06T11:32:06.698Z,101185.59
2023-04-06T11:34:39.690Z,101186.19
2023-04-06T11:37:12.990Z,101179.56
2023-04-06T11:39:54.953Z,101156.97
2023-04-06T11:42:30.546Z,101165.81
2023-04-06T11:45:01.344Z,101164.19
2023-04-06T11:47:37.313Z,101145.75
2023-04-06T11:50:15.357Z,101154.91
2023-04-06T11:52:43.514Z,101159.72
2023-04-06T11:55:16.289Z,101138.75
2023-04-06T11:57:44.318Z,101143.91
2023-04-06T12:00:13.359Z,101140.94
2023-04-06T12:02:41.292Z,101138.75
2023-04-06T12:05:09.464Z,101143.56
2023-04-06T12:07:37.203Z,101133.59
2023-04-06T12:10:06.058Z,101131.06
2023-04-06T12:12:33.103Z,101120.19
2023-04-06T12:15:00.860Z,101137.16
2023-04-06T12:17:27.857Z,101130.19
2023-04-06T12:19:55.814Z,101124.47
2023-04-06T12:22:24.274Z,101127.97
2023-04-06T12:24:51.240Z,101124.47
2023-04-06T12:27:18.234Z,101116.19
2023-04-06T12:29:45.575Z,101135.72
2023-04-06T12:32:12.795Z,101135.88
2023-04-06T12:34:39.949Z,101119.75
2023-04-06T12:37:07.631Z,101110.97
2023-04-06T12:39:34.564Z,101120.31
2023-04-06T12:42:02.498Z,101119.53
2023-04-06T12:44:30.118Z,101114.81
2023-04-06T12:46:57.320Z,101104.81
2023-04-06T12:49:25.381Z,101110.09
2023-04-06T12:51:52.304Z,101117.03
2023-04-06T12:54:19.246Z,101097.91
2023-04-06T12:56:46.583Z,101098.06
2023-04-06T12:59:13.613Z,101100.50
2023-04-06T13:01:40.913Z,101094.78
2023-04-06T13:04:07.859Z,101100.06
2023-04-06T13:06:34.962Z,101097.03
2023-04-06T13:09:02.098Z,101095.47
2023-04-06T13:11:29.369Z,101093.38
2023-04-06T13:13:56.436Z,101094.34
2023-04-06T13:16:23.535Z,101095.84
2023-04-06T13:18:51.282Z,101077.78
2023-04-06T13:21:18.825Z,101081.50
2023-04-06T13:23:46.118Z,101087.59
2023-04-06T13:26:14.548Z,101095.34
2023-04-06T13:28:42.405Z,101085.22
2023-04-06T13:31:10.713Z,101085.50
2023-04-06T13:33:38.021Z,101094.66
2023-04-06T13:36:05.965Z,101098.59
2023-04-06T13:38:34.548Z,101084.63
2023-04-06T13:41:01.574Z,101081.56
2023-04-06T13:43:28.624Z,101080.78
2023-04-06T13:45:56.755Z,101080.19
2023-04-06T13:48:23.914Z,101069.28
2023-04-06T13:50:51.190Z,101074.19
2023-04-06T13:53:18.355Z,101075.78
2023-04-06T13:55:53.835Z,101084.19
2023-04-06T13:58:20.822Z,101080.56
2023-04-06T14:00:47.865Z,101078.06
2023-04-06T14:03:14.996Z,101072.84
2023-04-06T14:05:41.909Z,101066.38
2023-04-06T14:08:08.870Z,101073.41
2023-04-06T14:10:45.580Z,101068.91
2023-04-06T14:13:12.846Z,101058.72
2023-04-06T14:15:40.087Z,101054.94
2023-04-06T14:18:07.150Z,101062.34
2023-04-06T14:20:34.169Z,101059.59
2023-04-06T14:23:02.878Z,101049.44
2023-04-06T14:25:32.537Z,101048.97
2023-04-06T14:27:59.580Z,101053.75
2023-04-06T14:30:26.672Z,101054.69
2023-04-06T14:32:53.686Z,101050.59
2023-04-06T14:35:20.843Z,101059.22
2023-04-06T14:37:48.308Z,101061.72
2023-04-06T14:40:15.377Z,101052.47
2023-04-06T14:42:42.532Z,101053.28
2023-04-06T14:45:09.930Z,101053.78
2023-04-06T14:47:36.910Z,101053.41
2023-04-06T14:50:04.394Z,101054.44
2023-04-06T14:52:32.829Z,101063.53
2023-04-06T14:54:59.978Z,101057.56
2023-04-06T14:57:26.975Z,101057.94
2023-04-06T14:59:55.464Z,101061.69
2023-04-06T15:02:22.580Z,101051.91
2023-04-06T15:04:49.699Z,101067.06
2023-04-06T15:07:16.700Z,101060.28
2023-04-06T15:09:43.668Z,101062.25
2023-04-06T15:12:10.721Z,101048.44
2023-04-06T15:14:37.682Z,101052.00
2023-04-06T15:17:04.661Z,101060.75
2023-04-06T15:19:31.593Z,101056.75
2023-04-06T15:22:00.812Z,101062.09
2023-04-06T15:24:27.913Z,101059.88
2023-04-06T15:26:54.853Z,101058.44
2023-04-06T15:29:21.994Z,101058.03
2023-04-06T15:31:48.941Z,101068.56
2023-04-06T15:34:15.911Z,101047.31
2023-04-06T15:36:44.538Z,101059.03
2023-04-06T15:39:11.565Z,101061.13
2023-04-06T15:41:38.754Z,101057.34
2023-04-06T15:44:06.159Z,101067.25
2023-04-06T15:46:33.314Z,101069.69
2023-04-06T15:49:00.242Z,101073.44
2023-04-06T15:51:27.565Z,101071.44
2023-04-06T15:53:54.526Z,101075.91
2023-04-06T15:56:21.479Z,101078.38
2023-04-06T15:58:48.554Z,101072.53
2023-04-06T16:01:18.207Z,101064.47
2023-04-06T16:03:45.693Z,101064.13
2023-04-06T16:06:13.285Z,101073.88
2023-04-06T16:08:41.083Z,101068.91
2023-04-06T16:11:08.751Z,101072.84
2023-04-06T16:13:36.730Z,101067.97
2023-04-06T16:16:05.556Z,101065.41
2023-04-06T16:18:34.833Z,101065.50
2023-04-06T16:21:03.780Z,101070.50
2023-04-06T16:23:30.707Z,101077.28
2023-04-06T16:26:00.712Z,101068.31
2023-04-06T16:28:27.709Z,101080.03
2023-04-06T16:30:54.634Z,101072.66
2023-04-06T16:33:23.983Z,101079.63
2023-04-06T16:35:51.196Z,101073.53
2023-04-06T16:38:18.207Z,101070.28
2023-04-06T16:40:45.132Z,101064.72
2023-04-06T16:43:14.165Z,101063.41
2023-04-06T16:45:41.352Z,101071.09
2023-04-06T16:48:08.794Z,101060.75
2023-04-06T16:50:36.596Z,101060.56
2023-04-06T16:53:03.608Z,101067.06
2023-04-06T16:55:30.701Z,101070.75
2023-04-06T16:57:57.668Z,101084.88
2023-04-06T17:00:24.928Z,101083.91
2023-04-06T17:02:52.057Z,101081.47
2023-04-06T17:05:24.995Z,101084.03
2023-04-06T17:07:52.669Z,101073.59
2023-04-06T17:10:28.640Z,101079.69
2023-04-06T17:13:00.843Z,101086.59
2023-04-06T17:15:29.481Z,101095.75
2023-04-06T17:17:56.691Z,101093.94
2023-04-06T17:20:23.730Z,101093.19
2023-04-06T17:22:51.531Z,101101.47
2023-04-06T17:25:18.799Z,101115.72
2023-04-06T17:27:45.932Z,101123.94
2023-04-06T17:30:15.561Z,101111.22
2023-04-06T17:32:44.226Z,101117.03
2023-04-06T17:35:11.862Z,101115.78
2023-04-06T17:37:39.122Z,101123.06
2023-04-06T17:40:07.597Z,101123.78
2023-04-06T17:42:34.550Z,101122.28
2023-04-06T17:45:01.638Z,101139.97
2023-04-06T17:47:32.305Z,101135.75
2023-04-06T17:50:01.446Z,101146.22
2023-04-06T17:52:29.383Z,101144.81
2023-04-06T17:54:56.638Z,101146.13
2023-04-06T17:57:23.949Z,101141.69
2023-04-06T17:59:51.099Z,101146.97
2023-04-06T18:02:20.001Z,101157.78
2023-04-06T18:04:47.341Z,101151.22
2023-04-06T18:07:14.305Z,101159.75
2023-04-06T18:09:41.896Z,101152.91
2023-04-06T18:12:08.907Z,101153.84
2023-04-06T18:14:35.859Z,101153.97
2023-04-06T18:17:03.035Z,101157.84
2023-04-06T18:19:32.236Z,101153.22
2023-04-06T18:21:59.171Z,101163.81
2023-04-06T18:24:40.416Z,101172.03
2023-04-06T18:27:08.047Z,101170.56
2023-04-06T18:29:36.146Z,101177.59
2023-04-06T18:32:03.202Z,101178.22
2023-04-06T18:34:30.185Z,101175.59
2023-04-06T18:36:57.590Z,101183.47
2023-04-06T18:39:24.630Z,101195.38
2023-04-06T18:41:51.574Z,101186.13
2023-04-06T18:44:18.840Z,101197.78
2023-04-06T18:46:46.427Z,101198.09
2023-04-06T18:49:13.461Z,101208.03
2023-04-06T18:51:42.948Z,101207.94
2023-04-06T18:54:09.952Z,101209.44
2023-04-06T18:56:42.583Z,101211.25
2023-04-06T18:59:10.659Z,101220.97
2023-04-06T19:01:43.545Z,101215.59
2023-04-06T19:04:11.861Z,101228.72
2023-04-06T19:06:39.093Z,101217.28
2023-04-06T19:09:08.511Z,101228.22
2023-04-06T19:11:37.006Z,101228.50
2023-04-06T19:14:04.065Z,101242.53
2023-04-06T19:16:34.537Z,101237.75
2023-04-06T19:19:01.436Z,101236.78
2023-04-06T19:21:28.421Z,101236.63
2023-04-06T19:23:56.169Z,101251.81
2023-04-06T19:26:24.154Z,101247.47
2023-04-06T19:28:51.459Z,101246.72
2023-04-06T19:31:19.760Z,101253.88
2023-04-06T19:33:47.830Z,101260.56
2023-04-06T19:36:15.656Z,101263.34
2023-04-06T19:38:42.673Z,101255.63
2023-04-06T19:41:09.894Z,101260.53
2023-04-06T19:43:36.916Z,101263.94
2023-04-06T19:46:04.806Z,101255.16
2023-04-06T19:48:33.851Z,101260.84
2023-04-06T19:51:01.274Z,101266.19
2023-04-06T19:53:28.273Z,101260.28
2023-04-06T19:55:55.272Z,101282.66
2023-04-06T19:58:22.417Z,101266.84
2023-04-06T20:00:49.444Z,101270.09
2023-04-06T20:03:16.546Z,101284.22
2023-04-06T20:05:43.675Z,101272.78
2023-04-06T20:08:10.825Z,101278.69
2023-04-06T20:10:37.984Z,101269.59
2023-04-06T20:13:04.934Z,101274.13
2023-04-06T20:15:31.952Z,101265.94
2023-04-06T20:17:58.945Z,101272.13
2023-04-06T20:20:26.078Z,101276.03
2023-04-06T20:22:52.988Z,101282.41
2023-04-06T20:25:20.154Z,101284.00
2023-04-06T20:27:47.098Z,101280.94
2023-04-06T20:30:15.473Z,101282.53
2023-04-06T20:32:42.936Z,101305.00
2023-04-06T20:35:10.174Z,101292.50
2023-04-06T20:37:42.652Z,101301.72
2023-04-06T20:40:10.561Z,101304.97
2023-04-06T20:42:37.651Z,101292.69
2023-04-06T20:45:05.704Z,101288.97
2023-04-06T20:47:32.931Z,101294.94
2023-04-06T20:50:00.599Z,101291.84
2023-04-06T20:52:27.787Z,101279.13
2023-04-06T20:54:55.067Z,101281.19
2023-04-06T20:57:23.072Z,101290.59
2023-04-06T20:59:50.465Z,101272.84
2023-04-06T21:02:18.259Z,101269.19
2023-04-06T21:04:45.589Z,101272.16
2023-04-06T21:07:12.757Z,101277.88
2023-04-06T21:09:41.398Z,101277.13
2023-04-06T21:12:08.715Z,101276.31
2023-04-06T21:14:36.581Z,101281.53
2023-04-06T21:17:04.156Z,101283.22
2023-04-06T21:19:31.147Z,101284.28
2023-04-06T21:21:58.227Z,101283.00
2023-04-06T21:24:25.244Z,101288.16
2023-04-06T21:26:52.361Z,101290.22
2023-04-06T21:29:19.349Z,101287.00
2023-04-06T21:31:46.310Z,101289.06
2023-04-06T21:34:14.291Z,101285.88
2023-04-06T21:36:42.256Z,101291.91
2023-04-06T21:39:09.583Z,101302.91
2023-04-06T21:41:36.890Z,101301.31
2023-04-06T21:44:04.273Z,101293.72
2023-04-06T21:46:31.265Z,101301.31
2023-04-06T21:48:58.564Z,101286.88
2023-04-06T21:51:25.944Z,101288.09
2023-04-06T21:53:53.863Z,101302.31
2023-04-06T21:56:22.988Z,101289.06
2023-04-06T21:58:51.188Z,101290.03
2023-04-06T22:01:19.339Z,101295.94
2023-04-06T22:03:46.821Z,101292.31
2023-04-06T22:06:14.072Z,101301.25
2023-04-06T22:08:41.217Z,101300.44
2023-04-06T22:11:11.239Z,101290.47
2023-04-06T22:13:39.019Z,101292.31
2023-04-06T22:16:06.996Z,101301.25
2023-04-06T22:18:37.317Z,101303.31
2023-04-06T22:21:05.853Z,101309.81
2023-04-06T22:23:33.103Z,101302.47
2023-04-06T22:26:00.574Z,101302.06
2023-04-06T22:28:27.548Z,101304.13
2023-04-06T22:30:54.623Z,101304.53
2023-04-06T22:33:21.624Z,101307.34
2023-04-06T22:35:48.727Z,101309.03
2023-04-06T22:38:15.776Z,101309.19
2023-04-06T22:40:42.752Z,101313.19
2023-04-06T22:43:10.166Z,101313.97
2023-04-06T22:45:37.348Z,101318.69
2023-04-06T22:48:04.375Z,101325.22
2023-04-06T22:50:31.724Z,101330.81
2023-04-06T22:52:58.870Z,101340.69
2023-04-06T22:55:26.100Z,101322.94
2023-04-06T22:57:53.077Z,101330.31
2023-04-06T23:00:20.428Z,101327.81
2023-04-06T23:02:47.604Z,101319.34
2023-04-06T23:05:14.744Z,101317.06
2023-04-06T23:07:41.758Z,101313.56
2023-04-06T23:10:09.564Z,101327.41
2023-04-06T23:12:36.536Z,101320.72
2023-04-06T23:15:03.695Z,101320.28
2023-04-06T23:17:30.767Z,101331.47
2023-04-06T23:19:57.789Z,101319.06
2023-04-06T23:22:24.800Z,101319.06
2023-04-06T23:24:51.839Z,101320.75
2023-04-06T23:27:19.133Z,101329.78
2023-04-06T23:29:46.427Z,101328.50
2023-04-06T23:32:13.548Z,101321.72
2023-04-06T23:34:40.966Z,101325.28
2023-04-06T23:37:07.900Z,101333.97
2023-04-06T23:39:36.390Z,101330.50
2023-04-06T23:42:03.637Z,101327.94
2023-04-06T23:44:30.962Z,101328.06
2023-04-06T23:46:58.287Z,101335.81
2023-04-06T23:49:26.563Z,101327.31
2023-04-06T23:51:53.577Z,101321.91
2023-04-06T23:54:20.600Z,101341.22
2023-04-06T23:56:47.653Z,101343.34
2023-04-06T23:59:14.654Z,101338.69
